createdAt,value
2023-01-15T00:02:22.634Z,61.95
2023-01-15T00:04:52.070Z,61.96
2023-01-15T00:07:19.136Z,62.73
2023-01-15T00:09:46.205Z,62.59
2023-01-15T00:12:13.243Z,62.15
2023-01-15T00:14:40.175Z,61.72
2023-01-15T00:17:07.200Z,61.80
2023-01-15T00:19:34.319Z,61.72
2023-01-15T00:22:01.315Z,62.39
2023-01-15T00:24:46.829Z,61.95
2023-01-15T00:27:32.628Z,62.09
2023-01-15T00:29:59.616Z,61.57
2023-01-15T00:32:29.930Z,61.65
2023-01-15T00:34:59.209Z,61.11
2023-01-15T00:37:26.390Z,60.86
2023-01-15T00:39:53.810Z,60.70
2023-01-15T00:42:20.803Z,61.46
2023-01-15T00:44:48.128Z,61.53
2023-01-15T00:47:15.456Z,61.71
2023-01-15T00:49:43.003Z,61.65
2023-01-15T00:52:11.016Z,62.05
2023-01-15T00:54:38.338Z,61.72
2023-01-15T00:57:05.441Z,62.03
2023-01-15T00:59:32.475Z,62.25
2023-01-15T01:01:59.634Z,62.42
2023-01-15T01:04:26.822Z,62.01
2023-01-15T01:06:54.349Z,62.29
2023-01-15T01:09:21.514Z,61.89
2023-01-15T01:11:50.137Z,61.41
2023-01-15T01:14:17.154Z,61.92
2023-01-15T01:16:44.154Z,62.63
2023-01-15T01:19:14.195Z,62.37
2023-01-15T01:21:43.005Z,62.61
2023-01-15T01:24:13.809Z,62.96
2023-01-15T01:26:41.089Z,62.31
2023-01-15T01:29:08.109Z,62.46
2023-01-15T01:31:35.350Z,61.89
2023-01-15T01:34:02.379Z,62.72
2023-01-15T01:36:32.394Z,62.60
2023-01-15T01:38:59.612Z,62.54
2023-01-15T01:41:28.298Z,62.65
2023-01-15T01:44:02.394Z,62.64
2023-01-15T01:46:35.045Z,62.36
2023-01-15T01:49:04.641Z,61.98
2023-01-15T01:51:42.383Z,62.32
2023-01-15T01:54:11.297Z,62.10
2023-01-15T01:56:42.150Z,62.40
2023-01-15T01:59:09.284Z,62.12
2023-01-15T02:01:36.898Z,62.65
2023-01-15T02:04:07.957Z,62.36
2023-01-15T02:06:37.611Z,62.41
2023-01-15T02:09:05.209Z,62.40
2023-01-15T02:11:35.007Z,62.33
2023-01-15T02:14:20.873Z,62.65
2023-01-15T02:17:30.596Z,61.73
2023-01-15T02:20:31.238Z,62.15
2023-01-15T02:23:07.084Z,62.41
2023-01-15T02:26:21.929Z,62.07
2023-01-15T02:28:52.804Z,62.14
2023-01-15T02:31:30.268Z,61.76
2023-01-15T02:34:06.973Z,61.41
2023-01-15T02:36:40.473Z,61.44
2023-01-15T02:39:13.273Z,61.31
2023-01-15T02:41:45.851Z,61.70
2023-01-15T02:44:16.763Z,61.83
2023-01-15T02:46:45.589Z,62.21
2023-01-15T02:49:17.503Z,61.97
2023-01-15T02:51:55.371Z,62.44
2023-01-15T02:54:26.560Z,61.99
2023-01-15T02:56:55.490Z,62.22
2023-01-15T02:59:34.527Z,62.25
2023-01-15T03:02:08.935Z,61.84
2023-01-15T03:04:53.253Z,61.85
2023-01-15T03:07:23.053Z,61.94
2023-01-15T03:09:51.662Z,62.07
2023-01-15T03:12:25.038Z,61.60
2023-01-15T03:15:11.719Z,61.26
2023-01-15T03:17:52.428Z,61.47
2023-01-15T03:20:29.739Z,61.81
2023-01-15T03:23:03.509Z,62.25
2023-01-15T03:25:35.708Z,61.99
2023-01-15T03:28:05.603Z,61.47
2023-01-15T03:30:33.968Z,61.14
2023-01-15T03:33:01.053Z,61.23
2023-01-15T03:36:00.124Z,61.26
2023-01-15T03:38:38.590Z,61.30
2023-01-15T03:41:26.728Z,61.78
2023-01-15T03:44:30.203Z,61.49
2023-01-15T03:47:06.588Z,61.70
2023-01-15T03:49:59.620Z,61.49
2023-01-15T03:52:57.669Z,61.64
2023-01-15T03:55:59.838Z,62.05
2023-01-15T03:58:39.731Z,61.80
2023-01-15T04:01:17.040Z,61.73
2023-01-15T04:03:46.372Z,61.88
2023-01-15T04:06:14.940Z,61.91
2023-01-15T04:08:46.243Z,62.51
2023-01-15T04:11:13.615Z,62.34
2023-01-15T04:17:12.209Z,62.49
2023-01-15T04:19:39.282Z,62.65
2023-01-15T04:22:10.717Z,62.91
2023-01-15T04:24:38.593Z,62.83
2023-01-15T04:27:05.646Z,62.79
2023-01-15T04:29:32.786Z,63.00
2023-01-15T04:31:59.768Z,62.52
2023-01-15T04:34:28.718Z,62.28
2023-01-15T04:36:57.142Z,62.26
2023-01-15T04:39:24.179Z,62.02
2023-01-15T04:42:10.029Z,61.76
2023-01-15T04:44:37.925Z,61.75
2023-01-15T04:47:05.448Z,61.92
2023-01-15T04:49:34.642Z,62.08
2023-01-15T04:52:01.682Z,62.28
2023-01-15T04:54:29.025Z,62.31
2023-01-15T04:56:56.170Z,62.18
2023-01-15T04:59:27.559Z,62.52
2023-01-15T05:02:03.910Z,62.57
2023-01-15T05:04:32.820Z,62.76
2023-01-15T05:07:01.763Z,62.88
2023-01-15T05:09:28.802Z,63.36
2023-01-15T05:11:55.856Z,63.17
2023-01-15T05:14:22.955Z,63.80
2023-01-15T05:16:50.020Z,63.99
2023-01-15T05:19:17.043Z,65.04
2023-01-15T05:21:45.026Z,64.90
2023-01-15T05:24:14.921Z,64.51
2023-01-15T05:26:42.350Z,64.29
2023-01-15T05:29:11.078Z,64.44
2023-01-15T05:31:38.069Z,64.27
2023-01-15T05:34:05.024Z,64.22
2023-01-15T05:36:32.523Z,64.85
2023-01-15T05:39:02.309Z,64.64
2023-01-15T05:41:49.379Z,64.05
2023-01-15T05:44:27.754Z,63.76
2023-01-15T05:46:59.239Z,63.52
2023-01-15T05:49:28.369Z,63.85
2023-01-15T05:51:55.975Z,64.14
2023-01-15T05:54:25.973Z,64.04
2023-01-15T05:56:53.751Z,63.59
2023-01-15T05:59:23.843Z,63.51
2023-01-15T06:01:51.402Z,63.49
2023-01-15T06:04:21.415Z,63.55
2023-01-15T06:06:50.347Z,63.75
2023-01-15T06:09:17.596Z,64.05
2023-01-15T06:11:44.644Z,63.48
2023-01-15T06:14:12.898Z,63.64
2023-01-15T06:16:41.452Z,63.27
2023-01-15T06:19:09.728Z,63.00
2023-01-15T06:21:36.902Z,62.99
2023-01-15T06:24:04.537Z,63.06
2023-01-15T06:26:31.652Z,62.99
2023-01-15T06:28:58.758Z,63.33
2023-01-15T06:31:28.897Z,63.24
2023-01-15T06:33:56.680Z,62.79
2023-01-15T06:36:26.332Z,62.52
2023-01-15T06:38:53.350Z,62.59
2023-01-15T06:41:42.550Z,62.43
2023-01-15T06:44:36.908Z,62.41
2023-01-15T06:47:21.842Z,62.52
2023-01-15T06:49:52.108Z,62.24
2023-01-15T06:52:19.429Z,61.53
2023-01-15T06:54:46.433Z,61.83
2023-01-15T06:57:13.808Z,61.30
2023-01-15T06:59:40.895Z,61.97
2023-01-15T07:02:07.913Z,61.36
2023-01-15T07:04:34.992Z,61.70
2023-01-15T07:07:02.008Z,61.07
2023-01-15T07:09:29.082Z,61.30
2023-01-15T07:11:56.083Z,61.17
2023-01-15T07:14:25.518Z,61.50
2023-01-15T07:16:53.021Z,61.21
2023-01-15T07:19:20.587Z,61.21
2023-01-15T07:21:49.008Z,62.14
2023-01-15T07:24:17.445Z,61.65
2023-01-15T07:26:45.981Z,62.06
2023-01-15T07:29:13.675Z,61.63
2023-01-15T07:31:41.200Z,62.02
2023-01-15T07:34:08.339Z,62.23
2023-01-15T07:36:35.458Z,62.19
2023-01-15T07:39:08.050Z,61.51
2023-01-15T07:41:53.779Z,62.07
2023-01-15T07:44:40.579Z,62.33
2023-01-15T07:47:40.120Z,62.15
2023-01-15T07:50:13.400Z,62.22
2023-01-15T07:52:40.440Z,62.36
2023-01-15T07:55:09.301Z,61.83
2023-01-15T07:57:37.401Z,61.44
2023-01-15T08:00:06.200Z,61.37
2023-01-15T08:02:40.124Z,61.43
2023-01-15T08:05:08.213Z,61.67
2023-01-15T08:07:40.335Z,61.82
2023-01-15T08:10:12.037Z,61.76
2023-01-15T08:12:59.467Z,62.10
2023-01-15T08:15:27.334Z,62.47
2023-01-15T08:17:54.393Z,62.49
2023-01-15T08:20:24.060Z,62.04
2023-01-15T08:22:51.120Z,62.85
2023-01-15T08:25:21.061Z,62.73
2023-01-15T08:27:48.453Z,62.69
2023-01-15T08:30:19.143Z,62.11
2023-01-15T08:32:46.263Z,62.80
2023-01-15T08:35:13.939Z,62.30
2023-01-15T08:37:42.086Z,62.19
2023-01-15T08:40:11.378Z,62.12
2023-01-15T08:42:40.120Z,61.70
2023-01-15T08:45:07.894Z,61.76
2023-01-15T08:47:35.071Z,61.96
2023-01-15T08:50:02.231Z,61.55
2023-01-15T08:52:30.301Z,60.84
2023-01-15T08:54:57.335Z,61.03
2023-01-15T08:57:24.388Z,60.86
2023-01-15T08:59:51.408Z,60.26
2023-01-15T09:02:18.487Z,60.70
2023-01-15T09:04:45.632Z,60.36
2023-01-15T09:07:13.246Z,60.87
2023-01-15T09:09:40.530Z,60.84
2023-01-15T09:12:07.673Z,61.34
2023-01-15T09:14:56.729Z,61.42
2023-01-15T09:17:21.641Z,61.42
2023-01-15T09:19:48.673Z,60.64
2023-01-15T09:22:15.793Z,60.58
2023-01-15T09:24:42.778Z,60.36
2023-01-15T09:27:12.291Z,60.58
2023-01-15T09:29:39.663Z,60.80
2023-01-15T09:32:08.280Z,60.53
2023-01-15T09:34:35.214Z,61.43
2023-01-15T09:37:02.284Z,61.12
2023-01-15T09:39:29.299Z,61.44
2023-01-15T09:42:17.961Z,61.87
2023-01-15T09:44:47.966Z,61.38
2023-01-15T09:47:41.268Z,61.70
2023-01-15T09:50:30.029Z,61.71
2023-01-15T09:53:14.270Z,61.71
2023-01-15T09:55:50.551Z,61.66
2023-01-15T09:58:23.557Z,61.49
2023-01-15T10:00:52.640Z,61.32
2023-01-15T10:03:40.823Z,60.83
2023-01-15T10:06:15.923Z,60.92
2023-01-15T10:08:46.680Z,60.80
2023-01-15T10:11:16.632Z,60.33
2023-01-15T10:14:00.370Z,60.64
2023-01-15T10:16:31.516Z,60.75
2023-01-15T10:19:02.719Z,60.34
2023-01-15T10:21:40.147Z,60.19
2023-01-15T10:24:19.761Z,59.81
2023-01-15T10:26:56.901Z,60.30
2023-01-15T10:29:45.153Z,60.23
2023-01-15T10:32:27.003Z,59.65
2023-01-15T10:35:21.907Z,60.50
2023-01-15T10:38:03.135Z,59.70
2023-01-15T10:40:45.516Z,59.59
2023-01-15T10:44:06.454Z,59.17
2023-01-15T10:46:38.600Z,59.03
2023-01-15T10:49:13.779Z,59.29
2023-01-15T10:51:54.111Z,58.84
2023-01-15T10:54:26.315Z,60.11
2023-01-15T10:57:12.272Z,59.09
2023-01-15T10:59:51.434Z,59.06
2023-01-15T11:02:34.395Z,59.52
2023-01-15T11:05:02.643Z,59.66
2023-01-15T11:08:02.954Z,59.61
2023-01-15T11:10:30.026Z,59.53
2023-01-15T11:13:41.351Z,59.15
2023-01-15T11:16:43.309Z,59.25
2023-01-15T11:19:43.767Z,59.03
2023-01-15T11:22:14.827Z,58.96
2023-01-15T11:24:51.680Z,59.38
2023-01-15T11:27:22.841Z,59.40
2023-01-15T11:30:25.353Z,59.36
2023-01-15T11:32:57.904Z,59.29
2023-01-15T11:35:25.967Z,59.49
2023-01-15T11:38:07.864Z,59.29
2023-01-15T11:40:35.210Z,58.95
2023-01-15T11:43:20.903Z,59.38
2023-01-15T11:46:08.749Z,59.17
2023-01-15T11:49:03.397Z,58.68
2023-01-15T11:51:34.072Z,58.75
2023-01-15T11:54:08.323Z,59.07
2023-01-15T11:56:36.571Z,59.53
2023-01-15T11:59:10.447Z,59.22
2023-01-15T12:01:49.647Z,58.81
2023-01-15T12:04:24.706Z,59.27
2023-01-15T12:06:51.855Z,59.05
2023-01-15T12:09:31.036Z,59.08
2023-01-15T12:12:06.887Z,59.40
2023-01-15T12:14:52.478Z,59.45
2023-01-15T12:17:40.962Z,59.45
2023-01-15T12:20:27.846Z,59.39
2023-01-15T12:23:16.689Z,59.18
2023-01-15T12:26:16.520Z,58.80
2023-01-15T12:28:55.355Z,58.64
2023-01-15T12:31:41.974Z,58.19
2023-01-15T12:34:19.560Z,58.41
2023-01-15T12:36:52.573Z,59.00
2023-01-15T12:39:24.999Z,58.87
2023-01-15T12:42:18.708Z,58.81
2023-01-15T12:45:01.720Z,59.11
2023-01-15T12:47:52.526Z,58.58
2023-01-15T12:50:33.199Z,59.07
2023-01-15T12:53:13.640Z,58.65
2023-01-15T12:55:49.062Z,59.11
2023-01-15T12:58:37.306Z,58.87
2023-01-15T13:01:13.577Z,58.28
2023-01-15T13:03:51.425Z,57.84
2023-01-15T13:06:19.810Z,58.77
2023-01-15T13:08:55.326Z,58.45
2023-01-15T13:11:22.646Z,58.50
2023-01-15T13:13:59.614Z,58.24
2023-01-15T13:16:30.542Z,58.77
2023-01-15T13:19:09.505Z,58.15
2023-01-15T13:21:39.142Z,58.49
2023-01-15T13:24:12.050Z,57.79
2023-01-15T13:27:07.310Z,58.28
2023-01-15T13:29:49.935Z,58.94
2023-01-15T13:32:33.944Z,58.34
2023-01-15T13:35:42.654Z,58.86
2023-01-15T13:38:19.441Z,58.75
2023-01-15T13:40:52.206Z,58.32
2023-01-15T13:43:34.007Z,58.80
2023-01-15T13:46:04.999Z,58.14
2023-01-15T13:48:48.751Z,58.37
2023-01-15T13:51:39.754Z,58.59
2023-01-15T13:54:14.677Z,59.12
2023-01-15T13:56:44.050Z,59.22
2023-01-15T13:59:50.927Z,59.43
2023-01-15T14:02:31.886Z,59.89
2023-01-15T14:04:59.191Z,59.65
2023-01-15T14:07:35.614Z,60.38
2023-01-15T14:10:17.770Z,59.99
2023-01-15T14:13:12.833Z,59.96
2023-01-15T14:16:12.394Z,60.23
2023-01-15T14:19:08.094Z,60.31
2023-01-15T14:21:56.863Z,60.16
2023-01-15T14:24:49.010Z,60.59
2023-01-15T14:27:39.032Z,60.51
2023-01-15T14:30:32.377Z,60.44
2023-01-15T14:33:24.253Z,60.51
2023-01-15T14:35:52.498Z,59.97
2023-01-15T14:38:25.543Z,60.10
2023-01-15T14:41:02.513Z,59.82
2023-01-15T14:43:34.152Z,60.54
2023-01-15T14:46:34.448Z,60.87
2023-01-15T14:49:02.706Z,60.47
2023-01-15T14:51:46.460Z,60.82
2023-01-15T14:54:19.928Z,60.68
2023-01-15T14:56:58.436Z,61.38
2023-01-15T14:59:50.803Z,61.18
2023-01-15T15:02:25.589Z,60.86
2023-01-15T15:04:56.605Z,60.91
2023-01-15T15:07:27.387Z,61.38
2023-01-15T15:10:01.720Z,61.51
2023-01-15T15:12:36.387Z,61.78
2023-01-15T15:15:16.780Z,61.63
2023-01-15T15:18:02.317Z,61.17
2023-01-15T15:20:58.984Z,61.00
2023-01-15T15:23:52.934Z,60.88
2023-01-15T15:26:41.552Z,61.47
2023-01-15T15:29:20.774Z,61.39
2023-01-15T15:31:57.425Z,61.28
2023-01-15T15:34:32.342Z,61.18
2023-01-15T15:37:04.718Z,61.10
2023-01-15T15:39:35.156Z,60.85
2023-01-15T15:42:23.330Z,61.28
2023-01-15T15:45:17.855Z,61.56
2023-01-15T15:48:03.937Z,61.42
2023-01-15T15:50:34.282Z,61.66
2023-01-15T15:53:04.795Z,61.36
2023-01-15T15:55:43.600Z,61.50
2023-01-15T15:58:35.045Z,61.78
2023-01-15T16:01:02.824Z,62.58
2023-01-15T16:03:33.341Z,62.81
2023-01-15T16:06:04.131Z,62.70
2023-01-15T16:08:36.209Z,62.60
2023-01-15T16:11:07.772Z,62.48
2023-01-15T16:13:46.920Z,62.70
2023-01-15T16:16:19.196Z,63.02
2023-01-15T16:18:50.039Z,63.49
2023-01-15T16:21:23.052Z,63.23
2023-01-15T16:23:58.959Z,63.34
2023-01-15T16:26:35.995Z,63.14
2023-01-15T16:29:06.332Z,63.55
2023-01-15T16:31:35.448Z,63.38
2023-01-15T16:34:04.889Z,63.32
2023-01-15T16:36:43.247Z,63.39
2023-01-15T16:39:28.648Z,63.39
2023-01-15T16:41:58.387Z,63.59
2023-01-15T16:44:28.401Z,63.96
2023-01-15T16:46:59.601Z,63.76
2023-01-15T16:49:31.115Z,63.76
2023-01-15T16:52:00.549Z,64.30
2023-01-15T16:54:31.025Z,64.23
2023-01-15T16:57:06.134Z,64.67
2023-01-15T16:59:33.427Z,64.98
2023-01-15T17:02:16.969Z,65.06
2023-01-15T17:04:45.307Z,65.08
2023-01-15T17:07:31.794Z,64.60
2023-01-15T17:10:01.939Z,64.66
2023-01-15T17:12:40.421Z,65.10
2023-01-15T17:15:17.298Z,64.64
2023-01-15T17:17:47.147Z,65.02
2023-01-15T17:20:17.010Z,65.04
2023-01-15T17:22:46.393Z,64.84
2023-01-15T17:25:26.526Z,64.18
2023-01-15T17:27:59.645Z,64.67
2023-01-15T17:30:31.512Z,64.55
2023-01-15T17:33:04.731Z,64.50
2023-01-15T17:35:35.211Z,64.70
2023-01-15T17:38:03.242Z,64.52
2023-01-15T17:40:30.328Z,63.69
2023-01-15T17:42:59.300Z,63.85
2023-01-15T17:45:29.504Z,63.43
2023-01-15T17:47:56.678Z,63.83
2023-01-15T17:50:24.269Z,62.97
2023-01-15T17:52:51.993Z,62.91
2023-01-15T17:55:40.657Z,63.15
2023-01-15T17:58:31.084Z,63.30
2023-01-15T18:01:16.989Z,63.26
2023-01-15T18:04:06.577Z,62.77
2023-01-15T18:06:34.623Z,62.59
2023-01-15T18:09:04.356Z,62.47
2023-01-15T18:11:31.857Z,62.25
2023-01-15T18:13:58.885Z,61.93
2023-01-15T18:16:26.629Z,62.05
2023-01-15T18:18:54.209Z,62.63
2023-01-15T18:21:21.723Z,62.50
2023-01-15T18:23:48.782Z,61.87
2023-01-15T18:26:16.105Z,61.59
2023-01-15T18:28:45.332Z,62.06
2023-01-15T18:31:12.547Z,61.81
2023-01-15T18:33:39.554Z,62.14
2023-01-15T18:36:12.472Z,62.35
2023-01-15T18:38:41.214Z,61.70
2023-01-15T18:41:36.122Z,61.83
2023-01-15T18:44:24.676Z,61.89
2023-01-15T18:46:55.327Z,61.95
2023-01-15T18:49:22.604Z,62.34
2023-01-15T18:52:08.679Z,62.65
2023-01-15T18:54:36.595Z,62.63
2023-01-15T18:57:04.604Z,62.23
2023-01-15T18:59:32.432Z,61.85
2023-01-15T19:02:00.439Z,61.44
2023-01-15T19:04:27.790Z,61.95
2023-01-15T19:06:55.327Z,62.11
2023-01-15T19:09:24.483Z,62.46
2023-01-15T19:11:52.716Z,62.97
2023-01-15T19:14:39.656Z,62.89
2023-01-15T19:17:36.550Z,62.50
2023-01-15T19:20:04.939Z,62.74
2023-01-15T19:22:50.555Z,62.84
2023-01-15T19:25:17.912Z,62.64
2023-01-15T19:27:47.988Z,62.85
2023-01-15T19:30:15.476Z,63.30
2023-01-15T19:32:42.920Z,63.05
2023-01-15T19:35:10.669Z,63.14
2023-01-15T19:37:39.819Z,63.04
2023-01-15T19:40:12.506Z,63.21
2023-01-15T19:42:58.254Z,63.56
2023-01-15T19:45:43.935Z,63.39
2023-01-15T19:48:32.014Z,62.98
2023-01-15T19:50:59.086Z,62.43
2023-01-15T19:53:26.218Z,62.98
2023-01-15T19:55:53.216Z,62.54
2023-01-15T19:58:20.325Z,63.34
2023-01-15T20:00:48.804Z,63.49
2023-01-15T20:03:16.730Z,63.22
2023-01-15T20:05:44.768Z,63.61
2023-01-15T20:08:17.811Z,63.72
2023-01-15T20:10:47.703Z,64.04
2023-01-15T20:13:41.675Z,64.26
2023-01-15T20:16:21.681Z,63.80
2023-01-15T20:18:49.918Z,63.83
2023-01-15T20:21:17.158Z,63.85
2023-01-15T20:23:44.975Z,64.33
2023-01-15T20:26:13.699Z,64.33
2023-01-15T20:28:42.749Z,64.20
2023-01-15T20:31:18.125Z,64.58
2023-01-15T20:33:45.664Z,64.50
2023-01-15T20:36:12.808Z,64.71
2023-01-15T20:38:39.799Z,64.34
2023-01-15T20:41:29.459Z,64.92
2023-01-15T20:44:14.964Z,65.47
2023-01-15T20:46:41.997Z,65.45
2023-01-15T20:49:32.619Z,65.28
2023-01-15T20:52:01.458Z,65.92
2023-01-15T20:54:28.725Z,65.44
2023-01-15T20:56:55.770Z,65.40
2023-01-15T20:59:22.789Z,65.71
2023-01-15T21:01:49.960Z,65.23
2023-01-15T21:04:17.066Z,65.38
2023-01-15T21:06:44.153Z,65.17
2023-01-15T21:09:11.207Z,65.19
2023-01-15T21:11:38.270Z,65.34
2023-01-15T21:14:05.431Z,65.70
2023-01-15T21:16:32.550Z,65.66
2023-01-15T21:19:01.366Z,65.14
2023-01-15T21:21:28.436Z,65.21
2023-01-15T21:23:55.638Z,64.95
2023-01-15T21:26:24.590Z,64.66
2023-01-15T21:28:55.917Z,65.01
2023-01-15T21:31:23.164Z,65.49
2023-01-15T21:33:54.384Z,65.09
2023-01-15T21:36:21.883Z,65.25
2023-01-15T21:38:54.706Z,64.77
2023-01-15T21:41:41.331Z,65.15
2023-01-15T21:44:30.679Z,64.40
2023-01-15T21:46:59.213Z,65.00
2023-01-15T21:49:26.400Z,64.28
2023-01-15T21:51:53.493Z,63.97
2023-01-15T21:54:20.768Z,63.42
2023-01-15T21:56:47.769Z,64.36
2023-01-15T21:59:15.177Z,64.03
2023-01-15T22:01:42.228Z,63.44
2023-01-15T22:04:09.463Z,63.25
2023-01-15T22:06:37.973Z,63.41
2023-01-15T22:09:05.398Z,63.70
2023-01-15T22:11:44.756Z,63.42
2023-01-15T22:14:23.520Z,63.83
2023-01-15T22:16:53.934Z,64.08
2023-01-15T22:19:22.417Z,64.01
2023-01-15T22:21:55.240Z,63.79
2023-01-15T22:24:25.319Z,63.40
2023-01-15T22:26:55.370Z,63.85
2023-01-15T22:29:24.616Z,63.75
2023-01-15T22:31:51.961Z,63.41
2023-01-15T22:34:21.526Z,64.00
2023-01-15T22:36:50.303Z,63.96
2023-01-15T22:39:18.269Z,63.77
2023-01-15T22:42:05.130Z,63.43
2023-01-15T22:44:32.938Z,63.96
2023-01-15T22:47:00.137Z,63.77
2023-01-15T22:49:27.591Z,63.97
2023-01-15T22:51:55.073Z,63.64
2023-01-15T22:54:22.219Z,63.44
2023-01-15T22:56:49.300Z,63.29
2023-01-15T22:59:17.164Z,64.06
2023-01-15T23:01:44.231Z,63.57
2023-01-15T23:04:23.180Z,63.64
2023-01-15T23:06:51.778Z,63.62
2023-01-15T23:09:20.796Z,63.15
2023-01-15T23:11:48.182Z,62.63
2023-01-15T23:14:15.835Z,63.02
2023-01-15T23:16:43.575Z,63.37
2023-01-15T23:19:12.199Z,63.19
2023-01-15T23:21:40.748Z,63.50
2023-01-15T23:24:07.972Z,64.03
2023-01-15T23:26:35.217Z,63.78
2023-01-15T23:29:03.161Z,63.80
2023-01-15T23:31:30.592Z,64.07
2023-01-15T23:33:57.862Z,64.03
2023-01-15T23:36:25.171Z,64.13
2023-01-15T23:38:52.253Z,64.34
2023-01-15T23:41:44.384Z,64.46
2023-01-15T23:44:37.504Z,64.63
2023-01-15T23:47:05.123Z,64.87
2023-01-15T23:49:32.324Z,64.92
2023-01-15T23:51:59.812Z,64.03
2023-01-15T23:54:28.982Z,64.90
2023-01-15T23:56:57.439Z,65.03
2023-01-15T23:59:25.135Z,64.37
